createdAt,value
2023-03-12T00:01:46.482Z,13.02
2023-03-12T00:04:36.456Z,12.80
2023-03-12T00:07:24.607Z,15.27
2023-03-12T00:10:12.832Z,14.75
2023-03-12T00:13:00.986Z,14.35
2023-03-12T00:15:51.929Z,13.60
2023-03-12T00:18:42.923Z,13.95
2023-03-12T00:21:30.871Z,13.63
2023-03-12T00:24:21.338Z,13.85
2023-03-12T00:27:09.984Z,13.25
2023-03-12T00:30:03.657Z,12.70
2023-03-12T00:32:51.930Z,11.98
2023-03-12T00:35:39.967Z,13.68
2023-03-12T00:38:27.887Z,12.65
2023-03-12T00:41:15.965Z,12.95
2023-03-12T00:44:03.871Z,12.88
2023-03-12T00:46:51.879Z,12.48
2023-03-12T00:49:40.380Z,12.25
2023-03-12T00:52:28.369Z,13.27
2023-03-12T00:55:16.339Z,11.75
2023-03-12T00:58:04.346Z,12.98
2023-03-12T01:00:52.256Z,11.98
2023-03-12T01:03:40.304Z,12.75
2023-03-12T01:06:28.428Z,12.85
2023-03-12T01:09:16.398Z,12.48
2023-03-12T01:12:04.609Z,13.30
2023-03-12T01:14:52.757Z,12.55
2023-03-12T01:17:40.761Z,13.40
2023-03-12T01:20:28.833Z,12.57
2023-03-12T01:23:17.104Z,12.65
2023-03-12T01:26:05.271Z,12.45
2023-03-12T01:28:53.145Z,11.82
2023-03-12T01:31:41.080Z,11.45
2023-03-12T01:34:30.882Z,11.50
2023-03-12T01:37:18.958Z,12.10
2023-03-12T01:40:15.241Z,13.15
2023-03-12T01:43:31.517Z,12.48
2023-03-12T01:46:35.566Z,12.35
2023-03-12T01:55:19.171Z,11.15
2023-03-12T01:58:07.886Z,12.02
2023-03-12T02:00:56.002Z,12.82
2023-03-12T02:03:47.610Z,11.43
2023-03-12T02:06:49.457Z,11.93
2023-03-12T02:09:42.879Z,10.88
2023-03-12T02:12:30.811Z,12.32
2023-03-12T02:15:19.455Z,11.57
2023-03-12T02:18:12.070Z,11.27
2023-03-12T02:21:05.886Z,11.40
2023-03-12T02:27:12.345Z,11.52
2023-03-12T02:30:02.224Z,11.98
2023-03-12T02:32:50.979Z,11.95
2023-03-12T02:35:39.769Z,11.07
2023-03-12T02:38:35.788Z,11.80
2023-03-12T02:41:54.805Z,11.50
2023-03-12T02:44:43.906Z,11.63
2023-03-12T02:47:32.971Z,12.93
2023-03-12T02:50:21.261Z,12.75
2023-03-12T02:53:09.063Z,12.15
2023-03-12T02:55:57.145Z,12.40
2023-03-12T02:58:45.044Z,12.50
2023-03-12T03:01:33.985Z,11.90
2023-03-12T03:04:22.126Z,13.45
2023-03-12T03:07:10.025Z,12.50
2023-03-12T03:10:03.962Z,13.07
2023-03-12T03:15:40.129Z,12.50
2023-03-12T03:18:29.955Z,13.43
2023-03-12T03:21:18.645Z,14.13
2023-03-12T03:24:07.008Z,14.07
2023-03-12T03:26:54.981Z,14.63
2023-03-12T03:29:42.909Z,14.10
2023-03-12T03:32:31.372Z,14.68
2023-03-12T03:35:19.818Z,14.65
2023-03-12T03:38:08.264Z,14.25
2023-03-12T03:40:56.501Z,14.60
2023-03-12T03:43:44.663Z,13.80
2023-03-12T03:46:32.643Z,14.38
2023-03-12T03:49:20.566Z,14.07
2023-03-12T03:52:08.562Z,15.07
2023-03-12T03:54:57.164Z,14.85
2023-03-12T03:57:45.035Z,14.02
2023-03-12T04:00:33.788Z,13.60
2023-03-12T04:03:21.688Z,14.55
2023-03-12T04:06:10.505Z,12.52
2023-03-12T04:08:59.037Z,13.02
2023-03-12T04:11:47.079Z,13.93
2023-03-12T04:14:35.039Z,13.40
2023-03-12T04:17:23.518Z,13.15
2023-03-12T04:20:14.367Z,13.60
2023-03-12T04:23:02.266Z,13.43
2023-03-12T04:25:50.084Z,12.25
2023-03-12T04:28:38.983Z,13.82
2023-03-12T04:31:26.979Z,13.25
2023-03-12T04:34:14.951Z,13.05
2023-03-12T04:37:05.871Z,15.25
2023-03-12T04:39:53.784Z,15.25
2023-03-12T04:42:41.656Z,14.50
2023-03-12T04:45:29.466Z,14.20
2023-03-12T04:48:19.608Z,14.98
2023-03-12T04:51:07.616Z,15.27
2023-03-12T04:53:56.312Z,13.23
2023-03-12T04:56:44.308Z,14.65
2023-03-12T04:59:32.135Z,15.10
2023-03-12T05:02:20.223Z,15.85
2023-03-12T05:05:11.033Z,15.52
2023-03-12T05:07:59.434Z,15.55
2023-03-12T05:10:47.329Z,14.50
2023-03-12T05:13:35.388Z,14.95
2023-03-12T05:16:23.314Z,14.40
2023-03-12T05:19:11.445Z,14.52
2023-03-12T05:21:59.357Z,14.48
2023-03-12T05:24:47.268Z,14.15
2023-03-12T05:27:35.867Z,13.15
2023-03-12T05:30:23.825Z,13.35
2023-03-12T05:33:14.119Z,13.60
2023-03-12T05:36:02.223Z,13.40
2023-03-12T05:38:50.219Z,14.05
2023-03-12T05:41:38.335Z,13.63
2023-03-12T05:44:27.231Z,13.82
2023-03-12T05:47:17.874Z,13.27
2023-03-12T05:50:06.490Z,13.27
2023-03-12T05:52:54.337Z,12.95
2023-03-12T05:55:45.136Z,12.80
2023-03-12T05:58:35.169Z,13.15
2023-03-12T06:01:26.439Z,13.20
2023-03-12T06:04:16.756Z,14.18
2023-03-12T06:07:04.663Z,12.70
2023-03-12T06:09:52.594Z,13.32
2023-03-12T06:12:40.852Z,13.95
2023-03-12T06:15:28.900Z,13.40
2023-03-12T06:18:19.606Z,14.20
2023-03-12T06:21:12.599Z,13.45
2023-03-12T06:24:00.823Z,11.13
2023-03-12T06:26:48.791Z,13.38
2023-03-12T06:29:36.937Z,12.93
2023-03-12T06:32:24.978Z,12.75
2023-03-12T06:35:13.093Z,13.50
2023-03-12T06:38:01.233Z,13.88
2023-03-12T06:41:00.398Z,13.10
2023-03-12T06:43:48.901Z,13.15
2023-03-12T06:46:37.302Z,13.88
2023-03-12T06:49:32.354Z,12.60
2023-03-12T06:52:20.281Z,12.73
2023-03-12T06:55:08.307Z,13.80
2023-03-12T06:57:56.184Z,13.10
2023-03-12T07:00:44.000Z,12.10
2023-03-12T07:03:32.315Z,11.80
2023-03-12T07:06:24.308Z,11.65
2023-03-12T07:09:12.229Z,12.77
2023-03-12T07:12:00.121Z,12.98
2023-03-12T07:14:47.945Z,12.63
2023-03-12T07:17:35.889Z,12.38
2023-03-12T07:20:23.870Z,11.90
2023-03-12T07:23:12.016Z,12.07
2023-03-12T07:25:59.948Z,13.68
2023-03-12T07:28:47.941Z,13.00
2023-03-12T07:31:35.886Z,12.07
2023-03-12T07:34:23.891Z,12.15
2023-03-12T07:37:12.261Z,11.70
2023-03-12T07:40:00.273Z,11.52
2023-03-12T07:42:48.419Z,13.63
2023-03-12T07:45:36.430Z,11.60
2023-03-12T07:48:27.355Z,12.30
2023-03-12T07:51:18.380Z,12.73
2023-03-12T07:54:06.341Z,12.38
2023-03-12T07:56:54.382Z,13.93
2023-03-12T07:59:42.600Z,14.18
2023-03-12T08:02:30.453Z,12.63
2023-03-12T08:05:19.192Z,12.25
2023-03-12T08:08:07.482Z,13.88
2023-03-12T08:10:55.593Z,14.85
2023-03-12T08:13:43.455Z,15.45
2023-03-12T08:16:31.721Z,15.90
2023-03-12T08:19:20.117Z,17.85
2023-03-12T08:22:08.354Z,19.63
2023-03-12T08:24:57.959Z,20.25
2023-03-12T08:27:47.018Z,19.77
2023-03-12T08:30:35.459Z,21.00
2023-03-12T08:33:27.268Z,24.05
2023-03-12T08:36:15.266Z,24.58
2023-03-12T08:39:04.815Z,25.05
2023-03-12T08:41:55.689Z,26.42
2023-03-12T08:44:46.626Z,25.77
2023-03-12T08:47:43.629Z,27.10
2023-03-12T08:50:37.759Z,28.00
2023-03-12T08:53:30.635Z,27.58
2023-03-12T08:56:21.518Z,27.90
2023-03-12T08:59:18.012Z,28.00
2023-03-12T09:02:06.606Z,29.90
2023-03-12T09:05:02.210Z,31.77
2023-03-12T09:07:50.636Z,28.42
2023-03-12T09:10:43.150Z,29.98
2023-03-12T09:14:03.910Z,34.65
2023-03-12T09:17:06.443Z,35.08
2023-03-12T09:19:56.719Z,31.77
2023-03-12T09:22:48.307Z,37.13
2023-03-12T09:25:38.520Z,35.90
2023-03-12T09:28:29.665Z,31.88
2023-03-12T09:31:18.237Z,34.53
2023-03-12T09:34:08.655Z,32.80
2023-03-12T09:37:03.928Z,31.52
2023-03-12T09:39:53.475Z,34.83
2023-03-12T09:42:55.968Z,33.78
2023-03-12T09:45:46.680Z,35.35
2023-03-12T09:48:45.734Z,38.85
2023-03-12T09:51:57.655Z,39.70
2023-03-12T09:54:59.707Z,39.00
2023-03-12T09:57:56.048Z,44.60
2023-03-12T10:00:47.858Z,39.85
2023-03-12T10:04:12.324Z,44.55
2023-03-12T10:07:34.536Z,41.63
2023-03-12T10:10:59.105Z,39.50
2023-03-12T10:17:44.101Z,45.17
2023-03-12T10:21:10.909Z,47.50
2023-03-12T10:24:25.331Z,39.75
2023-03-12T10:27:16.866Z,47.58
2023-03-12T10:30:40.969Z,47.47
2023-03-12T10:33:54.749Z,48.10
2023-03-12T10:36:46.176Z,51.20
2023-03-12T10:39:36.506Z,50.28
2023-03-12T10:42:31.781Z,47.13
2023-03-12T10:45:44.658Z,46.75
2023-03-12T10:48:35.209Z,43.58
2023-03-12T10:51:23.354Z,47.33
2023-03-12T10:54:40.734Z,44.63
2023-03-12T10:57:41.583Z,47.83
2023-03-12T11:00:35.066Z,44.92
2023-03-12T11:03:27.822Z,48.10
2023-03-12T11:06:32.679Z,47.15
2023-03-12T11:09:26.361Z,41.38
2023-03-12T11:12:32.970Z,38.75
2023-03-12T11:15:45.350Z,42.33
2023-03-12T11:18:41.111Z,44.65
2023-03-12T11:21:33.885Z,42.13
2023-03-12T11:24:24.360Z,42.10
2023-03-12T11:27:48.196Z,36.92
2023-03-12T11:30:40.409Z,31.10
2023-03-12T11:33:29.173Z,38.58
2023-03-12T11:36:46.560Z,40.38
2023-03-12T11:39:49.264Z,44.17
2023-03-12T11:43:29.226Z,42.42
2023-03-12T11:47:00.640Z,34.40
2023-03-12T11:50:15.670Z,35.47
2023-03-12T11:53:12.142Z,35.00
2023-03-12T11:56:38.625Z,31.30
2023-03-12T11:59:54.844Z,31.30
2023-03-12T12:03:10.857Z,32.05
2023-03-12T12:06:36.957Z,25.92
2023-03-12T12:09:39.329Z,27.60
2023-03-12T12:13:05.581Z,25.20
2023-03-12T12:16:24.611Z,26.00
2023-03-12T12:19:48.933Z,27.83
2023-03-12T12:23:22.218Z,26.08
2023-03-12T12:26:14.385Z,23.40
2023-03-12T12:29:24.528Z,21.38
2023-03-12T12:32:41.364Z,21.05
2023-03-12T12:35:40.760Z,23.30
2023-03-12T12:39:30.307Z,23.88
2023-03-12T12:42:24.268Z,23.15
2023-03-12T12:48:17.781Z,23.08
2023-03-12T12:51:09.036Z,20.70
2023-03-12T12:54:31.311Z,21.23
2023-03-12T12:57:30.956Z,23.15
2023-03-12T13:00:47.615Z,22.17
2023-03-12T13:03:38.083Z,21.80
2023-03-12T13:06:30.297Z,21.10
2023-03-12T13:09:35.346Z,23.20
2023-03-12T13:12:49.519Z,23.30
2023-03-12T13:15:43.681Z,25.48
2023-03-12T13:18:32.456Z,25.60
2023-03-12T13:21:31.403Z,23.60
2023-03-12T13:24:29.763Z,26.25
2023-03-12T13:27:45.316Z,23.23
2023-03-12T13:30:33.200Z,23.23
2023-03-12T13:33:45.402Z,25.15
2023-03-12T13:36:37.410Z,23.27
2023-03-12T13:39:37.073Z,23.15
2023-03-12T13:42:25.111Z,25.08
2023-03-12T13:45:30.525Z,26.55
2023-03-12T13:48:21.580Z,26.13
2023-03-12T13:51:20.456Z,25.67
2023-03-12T13:54:18.918Z,27.38
2023-03-12T13:57:23.868Z,25.85
2023-03-12T14:00:44.081Z,25.50
2023-03-12T14:03:43.301Z,25.52
2023-03-12T14:06:57.071Z,25.13
2023-03-12T14:10:15.613Z,25.40
2023-03-12T14:13:50.141Z,25.27
2023-03-12T14:16:49.524Z,26.30
2023-03-12T14:19:45.235Z,26.60
2023-03-12T14:22:35.909Z,27.30
2023-03-12T14:25:36.015Z,25.85
2023-03-12T14:28:25.603Z,26.85
2023-03-12T14:31:17.498Z,26.67
2023-03-12T14:34:28.165Z,24.90
2023-03-12T14:37:25.606Z,23.67
2023-03-12T14:40:24.056Z,23.15
2023-03-12T14:43:28.374Z,25.58
2023-03-12T14:49:20.341Z,24.57
2023-03-12T14:52:12.103Z,24.02
2023-03-12T14:55:11.885Z,22.73
2023-03-12T14:58:15.658Z,24.40
2023-03-12T15:01:07.420Z,23.35
2023-03-12T15:04:01.352Z,25.00
2023-03-12T15:09:44.963Z,23.42
2023-03-12T15:12:37.299Z,25.50
2023-03-12T15:15:46.288Z,24.33
2023-03-12T15:18:34.775Z,24.38
2023-03-12T15:21:22.841Z,25.67
2023-03-12T15:24:14.247Z,25.10
2023-03-12T15:27:20.337Z,22.38
2023-03-12T15:30:44.497Z,24.13
2023-03-12T15:33:32.332Z,24.08
2023-03-12T15:36:33.088Z,23.60
2023-03-12T15:39:32.106Z,23.92
2023-03-12T15:42:24.453Z,24.00
2023-03-12T15:45:29.575Z,24.65
2023-03-12T15:48:30.844Z,24.45
2023-03-12T15:51:37.209Z,24.15
2023-03-12T15:54:27.994Z,22.13
2023-03-12T15:57:24.096Z,23.08
2023-03-12T16:00:18.892Z,23.85
2023-03-12T16:03:17.547Z,24.23
2023-03-12T16:06:11.444Z,24.25
2023-03-12T16:09:06.419Z,24.33
2023-03-12T16:11:55.726Z,23.20
2023-03-12T16:14:44.027Z,23.90
2023-03-12T16:17:32.154Z,23.35
2023-03-12T16:20:20.818Z,25.13
2023-03-12T16:23:09.185Z,25.48
2023-03-12T16:26:01.714Z,25.73
2023-03-12T16:28:51.689Z,24.85
2023-03-12T16:31:43.292Z,23.33
2023-03-12T16:34:39.176Z,24.60
2023-03-12T16:37:27.345Z,24.55
2023-03-12T16:40:32.517Z,23.48
2023-03-12T16:43:24.992Z,25.15
2023-03-12T16:46:19.711Z,24.08
2023-03-12T16:49:16.251Z,25.58
2023-03-12T16:52:17.992Z,24.30
2023-03-12T16:55:06.737Z,24.90
2023-03-12T16:58:07.251Z,24.38
2023-03-12T17:00:58.892Z,23.35
2023-03-12T17:03:55.329Z,22.95
2023-03-12T17:06:47.141Z,23.13
2023-03-12T17:09:39.485Z,22.17
2023-03-12T17:12:37.029Z,24.60
2023-03-12T17:15:33.578Z,23.05
2023-03-12T17:18:27.337Z,21.17
2023-03-12T17:21:21.095Z,22.30
2023-03-12T17:24:16.178Z,22.67
2023-03-12T17:27:04.650Z,22.67
2023-03-12T17:29:54.917Z,22.75
2023-03-12T17:32:43.268Z,19.52
2023-03-12T17:35:31.879Z,20.10
2023-03-12T17:38:20.363Z,20.20
2023-03-12T17:41:23.332Z,19.13
2023-03-12T17:44:16.144Z,18.75
2023-03-12T17:47:04.478Z,19.60
2023-03-12T17:49:58.365Z,19.08
2023-03-12T17:52:52.029Z,17.95
2023-03-12T17:55:41.677Z,17.40
2023-03-12T17:58:29.604Z,19.52
2023-03-12T18:01:21.055Z,18.02
2023-03-12T18:04:08.852Z,17.45
2023-03-12T18:06:58.988Z,16.85
2023-03-12T18:09:48.629Z,18.15
2023-03-12T18:12:38.455Z,17.02
2023-03-12T18:15:29.238Z,15.45
2023-03-12T18:18:20.242Z,14.07
2023-03-12T18:21:11.793Z,14.90
2023-03-12T18:24:08.260Z,15.85
2023-03-12T18:27:02.227Z,13.80
2023-03-12T18:29:50.360Z,14.40
2023-03-12T18:32:39.349Z,15.27
2023-03-12T18:35:29.408Z,14.32
2023-03-12T18:38:17.490Z,14.52
2023-03-12T18:41:08.882Z,13.63
2023-03-12T18:43:57.289Z,14.60
2023-03-12T18:46:45.548Z,12.35
2023-03-12T18:49:33.549Z,11.63
2023-03-12T18:52:22.416Z,10.75
2023-03-12T18:55:24.119Z,10.48
2023-03-12T18:58:11.975Z,10.43
2023-03-12T19:01:00.672Z,11.63
2023-03-12T19:03:48.590Z,11.02
2023-03-12T19:06:49.795Z,9.85
2023-03-12T19:09:41.347Z,10.20
2023-03-12T19:12:30.293Z,9.70
2023-03-12T19:15:19.990Z,8.73
2023-03-12T19:18:07.985Z,10.55
2023-03-12T19:20:56.687Z,10.45
2023-03-12T19:23:45.055Z,9.13
2023-03-12T19:26:33.212Z,9.80
2023-03-12T19:29:21.432Z,10.02
2023-03-12T19:32:09.288Z,10.15
2023-03-12T19:34:57.449Z,11.00
2023-03-12T19:37:45.462Z,11.68
2023-03-12T19:40:34.497Z,9.98
2023-03-12T19:43:22.549Z,11.13
2023-03-12T19:46:12.955Z,10.52
2023-03-12T19:49:02.611Z,10.18
2023-03-12T19:51:52.501Z,10.10
2023-03-12T19:54:44.047Z,9.40
2023-03-12T19:57:35.075Z,10.13
2023-03-12T20:00:28.358Z,9.23
2023-03-12T20:03:18.605Z,9.27
2023-03-12T20:06:14.440Z,11.70
2023-03-12T20:09:08.825Z,9.60
2023-03-12T20:11:59.008Z,10.25
2023-03-12T20:14:50.081Z,9.90
2023-03-12T20:17:43.500Z,8.95
2023-03-12T20:23:33.959Z,9.50
2023-03-12T20:26:25.773Z,9.23
2023-03-12T20:29:18.545Z,9.57
2023-03-12T20:32:45.433Z,10.35
2023-03-12T20:43:44.444Z,9.43
2023-03-12T20:46:35.347Z,10.00
2023-03-12T20:49:28.681Z,10.32
2023-03-12T20:52:18.988Z,9.07
2023-03-12T20:55:09.748Z,10.05
2023-03-12T20:58:00.594Z,9.43
2023-03-12T21:00:54.225Z,10.43
2023-03-12T21:03:45.235Z,9.77
2023-03-12T21:06:37.514Z,9.45
2023-03-12T21:09:28.765Z,10.00
2023-03-12T21:12:19.112Z,9.10
2023-03-12T21:15:10.273Z,9.90
2023-03-12T21:17:58.164Z,9.35
2023-03-12T21:20:46.102Z,8.50
2023-03-12T21:23:35.704Z,9.43
2023-03-12T21:26:26.156Z,8.02
2023-03-12T21:29:14.300Z,9.30
2023-03-12T21:32:02.322Z,9.02
2023-03-12T21:34:50.799Z,8.50
2023-03-12T21:37:39.449Z,8.90
2023-03-12T21:40:27.547Z,7.30
2023-03-12T21:43:15.486Z,8.13
2023-03-12T21:46:09.260Z,8.05
2023-03-12T21:48:57.739Z,8.10
2023-03-12T21:51:46.037Z,9.35
2023-03-12T21:54:38.699Z,9.18
2023-03-12T21:57:27.409Z,7.85
2023-03-12T22:00:16.231Z,7.80
2023-03-12T22:03:04.287Z,7.90
2023-03-12T22:05:53.019Z,7.97
2023-03-12T22:08:41.161Z,6.47
2023-03-12T22:11:29.471Z,7.10
2023-03-12T22:14:18.041Z,8.00
2023-03-12T22:17:08.724Z,6.97
2023-03-12T22:19:56.861Z,6.97
2023-03-12T22:22:45.037Z,5.80
2023-03-12T22:25:35.402Z,8.02
2023-03-12T22:28:25.620Z,8.32
2023-03-12T22:31:13.721Z,8.95
2023-03-12T22:34:01.776Z,7.00
2023-03-12T22:36:49.917Z,6.18
2023-03-12T22:39:38.537Z,7.05
2023-03-12T22:42:26.583Z,6.93
2023-03-12T22:45:14.794Z,6.53
2023-03-12T22:48:03.778Z,7.32
2023-03-12T22:50:55.189Z,7.25
2023-03-12T22:53:43.027Z,6.85
2023-03-12T22:56:30.928Z,6.68
2023-03-12T22:59:18.856Z,6.15
2023-03-12T23:02:06.986Z,7.50
2023-03-12T23:04:55.203Z,6.65
2023-03-12T23:07:43.444Z,6.50
2023-03-12T23:10:31.508Z,6.32
2023-03-12T23:13:20.201Z,7.20
2023-03-12T23:16:11.977Z,6.07
2023-03-12T23:19:00.416Z,6.35
2023-03-12T23:21:53.085Z,6.78
2023-03-12T23:24:41.013Z,6.32
2023-03-12T23:27:29.248Z,6.57
2023-03-12T23:30:17.726Z,6.05
2023-03-12T23:33:05.586Z,6.45
2023-03-12T23:36:15.244Z,7.25
2023-03-12T23:39:04.244Z,6.95
2023-03-12T23:41:52.081Z,7.28
2023-03-12T23:44:40.185Z,6.68
2023-03-12T23:47:28.247Z,7.28
2023-03-12T23:50:16.404Z,6.13
2023-03-12T23:53:04.264Z,7.70
2023-03-12T23:56:01.250Z,6.80
2023-03-12T23:58:50.644Z,7.07
